createdAt,value
2019-03-04T00:01:12.161Z,43.40
2019-03-04T00:03:44.664Z,43.30
2019-03-04T00:06:17.045Z,43.40
2019-03-04T00:08:49.455Z,43.40
2019-03-04T00:11:21.819Z,43.20
2019-03-04T00:13:54.237Z,43.10
2019-03-04T00:16:26.607Z,43.10
2019-03-04T00:18:59.082Z,43.00
2019-03-04T00:21:31.545Z,43.00
2019-03-04T00:24:03.957Z,42.90
2019-03-04T00:26:36.340Z,42.80
2019-03-04T00:29:08.740Z,42.70
2019-03-04T00:31:41.110Z,42.60
2019-03-04T00:34:13.515Z,42.50
2019-03-04T00:36:45.887Z,42.60
2019-03-04T00:39:20.423Z,42.40
2019-03-04T00:41:52.798Z,42.40
2019-03-04T00:44:25.280Z,42.40
2019-03-04T00:46:57.569Z,42.30
2019-03-04T00:49:29.967Z,42.40
2019-03-04T00:52:02.373Z,42.20
2019-03-04T00:54:34.780Z,42.20
2019-03-04T00:57:07.443Z,42.50
2019-03-04T00:59:39.837Z,42.20
2019-03-04T01:02:12.150Z,42.90
2019-03-04T01:04:44.548Z,42.00
2019-03-04T01:07:16.929Z,42.00
2019-03-04T01:09:49.333Z,42.70
2019-03-04T01:12:21.658Z,42.10
2019-03-04T01:14:54.819Z,41.90
2019-03-04T01:17:27.254Z,41.90
2019-03-04T01:19:59.632Z,41.80
2019-03-04T01:22:32.028Z,41.70
2019-03-04T01:25:05.427Z,41.40
2019-03-04T01:27:37.869Z,41.40
2019-03-04T01:30:14.366Z,41.30
2019-03-04T01:32:46.742Z,41.50
2019-03-04T01:35:19.195Z,41.40
2019-03-04T01:37:51.578Z,41.30
2019-03-04T01:40:24.037Z,41.20
2019-03-04T01:42:56.443Z,41.30
2019-03-04T01:45:28.896Z,41.20
2019-03-04T01:48:01.293Z,41.10
2019-03-04T01:50:33.714Z,41.20
2019-03-04T01:53:06.107Z,41.20
2019-03-04T01:55:38.507Z,41.10
2019-03-04T01:58:10.931Z,41.20
2019-03-04T02:00:43.326Z,41.00
2019-03-04T02:03:15.856Z,40.90
2019-03-04T02:05:48.177Z,40.90
2019-03-04T02:08:20.549Z,40.90
2019-03-04T02:10:52.948Z,40.70
2019-03-04T02:13:25.323Z,40.90
2019-03-04T02:15:57.750Z,40.70
2019-03-04T02:18:30.230Z,40.80
2019-03-04T02:21:02.682Z,40.90
2019-03-04T02:23:35.095Z,41.00
2019-03-04T02:26:23.817Z,41.00
2019-03-04T02:28:56.650Z,41.70
2019-03-04T02:31:29.045Z,41.00
2019-03-04T02:34:01.458Z,41.10
2019-03-04T02:36:33.954Z,41.00
2019-03-04T02:39:06.804Z,41.10
2019-03-04T02:41:40.021Z,41.30
2019-03-04T02:44:12.392Z,41.30
2019-03-04T02:46:44.801Z,41.90
2019-03-04T02:49:17.192Z,42.50
2019-03-04T02:51:49.697Z,42.20
2019-03-04T02:54:22.182Z,42.30
2019-03-04T02:56:57.811Z,42.70
2019-03-04T02:59:30.270Z,42.70
2019-03-04T03:02:04.680Z,42.80
2019-03-04T03:04:37.730Z,43.20
2019-03-04T03:07:10.603Z,43.20
2019-03-04T03:09:43.203Z,43.20
2019-03-04T03:12:15.620Z,43.30
2019-03-04T03:14:50.353Z,43.40
2019-03-04T03:17:24.311Z,43.30
2019-03-04T03:19:56.778Z,43.30
2019-03-04T03:22:29.171Z,43.20
2019-03-04T03:25:01.556Z,43.30
2019-03-04T03:27:34.106Z,43.30
2019-03-04T03:30:08.935Z,43.30
2019-03-04T03:32:41.441Z,43.30
2019-03-04T03:35:14.923Z,43.40
2019-03-04T03:37:47.285Z,43.60
2019-03-04T03:40:19.639Z,43.80
2019-03-04T03:42:52.026Z,43.90
2019-03-04T03:45:24.412Z,43.80
2019-03-04T03:47:56.812Z,44.10
2019-03-04T03:50:29.210Z,44.20
2019-03-04T03:53:01.617Z,44.10
2019-03-04T03:55:34.006Z,44.20
2019-03-04T03:58:06.487Z,44.20
2019-03-04T04:00:38.864Z,44.40
2019-03-04T04:03:11.259Z,44.30
2019-03-04T04:05:43.674Z,44.30
2019-03-04T04:08:16.069Z,44.20
2019-03-04T04:10:48.535Z,44.20
2019-03-04T04:13:21.035Z,44.10
2019-03-04T04:15:53.580Z,44.00
2019-03-04T04:18:25.986Z,44.20
2019-03-04T04:20:58.432Z,44.00
2019-03-04T04:23:30.836Z,43.80
2019-03-04T04:26:04.865Z,43.90
2019-03-04T04:28:37.261Z,43.70
2019-03-04T04:31:09.646Z,43.60
2019-03-04T04:33:42.062Z,43.40
2019-03-04T04:36:14.433Z,43.30
2019-03-04T04:38:46.819Z,43.40
2019-03-04T04:41:19.208Z,43.20
2019-03-04T04:43:51.652Z,43.20
2019-03-04T04:46:48.615Z,43.00
2019-03-04T04:49:21.382Z,43.10
2019-03-04T04:51:53.791Z,43.20
2019-03-04T04:54:26.188Z,43.80
2019-03-04T04:56:58.560Z,43.00
2019-03-04T04:59:30.954Z,43.10
2019-03-04T05:02:03.324Z,42.80
2019-03-04T05:04:35.723Z,42.80
2019-03-04T05:07:08.034Z,42.80
2019-03-04T05:09:40.364Z,42.90
2019-03-04T05:12:13.018Z,42.90
2019-03-04T05:14:45.425Z,43.10
2019-03-04T05:17:17.871Z,42.90
2019-03-04T05:19:52.602Z,42.70
2019-03-04T05:22:24.970Z,42.50
2019-03-04T05:24:57.380Z,42.50
2019-03-04T05:27:29.751Z,42.30
2019-03-04T05:30:02.151Z,42.30
2019-03-04T05:32:34.590Z,42.40
2019-03-04T05:35:07.092Z,42.30
2019-03-04T05:37:39.463Z,42.20
2019-03-04T05:40:14.893Z,42.10
2019-03-04T05:42:47.263Z,42.10
2019-03-04T05:45:19.675Z,42.10
2019-03-04T05:47:52.049Z,41.80
2019-03-04T05:50:24.448Z,41.40
2019-03-04T05:52:56.816Z,41.40
2019-03-04T05:55:29.209Z,41.30
2019-03-04T05:58:01.577Z,41.20
2019-03-04T06:00:38.878Z,40.90
2019-03-04T06:03:12.378Z,40.90
2019-03-04T06:05:44.866Z,41.00
2019-03-04T06:08:17.243Z,40.90
2019-03-04T06:10:49.653Z,40.60
2019-03-04T06:13:22.050Z,40.70
2019-03-04T06:15:54.439Z,40.40
2019-03-04T06:18:26.911Z,40.60
2019-03-04T06:20:59.243Z,40.40
2019-03-04T06:23:31.687Z,40.50
2019-03-04T06:26:04.122Z,40.50
2019-03-04T06:28:36.611Z,40.00
2019-03-04T06:31:09.017Z,40.00
2019-03-04T06:33:41.407Z,40.00
2019-03-04T06:36:13.812Z,39.90
2019-03-04T06:38:46.204Z,40.00
2019-03-04T06:41:18.608Z,39.90
2019-03-04T06:43:51.022Z,39.70
2019-03-04T06:46:23.358Z,39.60
2019-03-04T06:48:55.738Z,39.70
2019-03-04T06:51:40.535Z,39.70
2019-03-04T06:55:14.826Z,39.50
2019-03-04T06:57:51.339Z,39.50
2019-03-04T07:00:56.569Z,39.80
2019-03-04T07:03:39.679Z,39.80
2019-03-04T07:06:12.141Z,40.30
2019-03-04T07:09:10.308Z,40.60
2019-03-04T07:11:53.693Z,40.80
2019-03-04T07:14:27.151Z,40.70
2019-03-04T07:16:59.663Z,40.90
2019-03-04T07:19:35.422Z,40.90
2019-03-04T07:22:11.165Z,40.90
2019-03-04T07:24:43.710Z,40.90
2019-03-04T07:27:16.112Z,40.90
2019-03-04T07:29:48.500Z,40.90
2019-03-04T07:32:20.890Z,40.50
2019-03-04T07:34:53.283Z,40.50
2019-03-04T07:37:25.688Z,41.10
2019-03-04T07:39:58.073Z,40.40
2019-03-04T07:42:31.316Z,40.70
2019-03-04T07:45:03.847Z,40.30
2019-03-04T07:47:36.252Z,40.00
2019-03-04T07:50:08.826Z,39.90
2019-03-04T07:52:41.172Z,39.70
2019-03-04T07:55:13.579Z,39.70
2019-03-04T07:57:45.995Z,39.50
2019-03-04T08:00:18.379Z,38.70
2019-03-04T08:02:50.780Z,39.40
2019-03-04T08:05:23.149Z,39.40
2019-03-04T08:07:55.658Z,39.30
2019-03-04T08:11:13.702Z,39.50
2019-03-04T08:13:52.463Z,39.60
2019-03-04T08:16:25.908Z,39.50
2019-03-04T08:18:58.317Z,39.50
2019-03-04T08:21:30.737Z,39.50
2019-03-04T08:24:03.141Z,39.50
2019-03-04T08:26:35.515Z,39.40
2019-03-04T08:29:08.003Z,39.50
2019-03-04T08:31:40.381Z,39.40
2019-03-04T08:34:12.780Z,39.30
2019-03-04T08:36:45.172Z,39.30
2019-03-04T08:39:18.454Z,39.20
2019-03-04T08:41:50.832Z,39.30
2019-03-04T08:44:23.246Z,39.10
2019-03-04T08:46:55.629Z,39.30
2019-03-04T08:49:29.103Z,39.30
2019-03-04T08:52:01.498Z,39.10
2019-03-04T08:54:33.998Z,39.10
2019-03-04T08:57:06.375Z,39.20
2019-03-04T08:59:38.840Z,39.10
2019-03-04T09:02:11.217Z,39.20
2019-03-04T09:04:43.619Z,39.10
2019-03-04T09:07:16.009Z,39.20
2019-03-04T09:09:48.402Z,39.10
2019-03-04T09:12:20.786Z,39.00
2019-03-04T09:14:53.262Z,39.00
2019-03-04T09:17:26.759Z,39.00
2019-03-04T09:20:00.322Z,39.10
2019-03-04T09:22:32.673Z,39.40
2019-03-04T09:25:06.702Z,40.00
2019-03-04T09:27:39.146Z,40.20
2019-03-04T09:30:12.159Z,40.90
2019-03-04T09:32:44.470Z,41.30
2019-03-04T09:35:16.947Z,41.50
2019-03-04T09:37:49.384Z,41.50
2019-03-04T09:40:21.810Z,41.50
2019-03-04T09:42:54.289Z,41.40
2019-03-04T09:45:26.725Z,41.50
2019-03-04T09:47:59.047Z,41.40
2019-03-04T09:50:31.559Z,41.50
2019-03-04T09:53:04.140Z,41.40
2019-03-04T09:55:36.536Z,41.60
2019-03-04T09:58:08.919Z,41.10
2019-03-04T10:01:27.087Z,41.20
2019-03-04T10:04:43.119Z,41.00
2019-03-04T10:08:05.035Z,41.10
2019-03-04T10:11:06.820Z,41.20
2019-03-04T10:14:07.743Z,41.00
2019-03-04T10:17:36.879Z,40.60
2019-03-04T10:20:58.298Z,40.70
2019-03-04T10:24:32.744Z,40.60
2019-03-04T10:27:36.134Z,40.40
2019-03-04T10:30:57.538Z,40.40
2019-03-04T10:34:21.650Z,40.30
2019-03-04T10:37:47.171Z,40.10
2019-03-04T10:41:20.230Z,41.00
2019-03-04T10:44:37.926Z,41.40
2019-03-04T10:47:10.658Z,41.50
2019-03-04T10:49:43.038Z,41.60
2019-03-04T10:52:15.403Z,41.70
2019-03-04T10:54:47.783Z,41.80
2019-03-04T10:57:20.193Z,42.00
2019-03-04T10:59:52.568Z,41.80
2019-03-04T11:02:25.007Z,41.90
2019-03-04T11:04:59.062Z,41.70
2019-03-04T11:07:31.452Z,41.70
2019-03-04T11:10:03.847Z,41.70
2019-03-04T11:12:36.330Z,42.00
2019-03-04T11:15:21.607Z,42.20
2019-03-04T11:17:54.539Z,42.30
2019-03-04T11:20:27.103Z,42.60
2019-03-04T11:22:59.588Z,43.20
2019-03-04T11:25:33.010Z,43.40
2019-03-04T11:28:05.409Z,43.30
2019-03-04T11:30:37.879Z,43.50
2019-03-04T11:33:10.283Z,43.60
2019-03-04T11:35:42.665Z,43.40
2019-03-04T11:38:41.746Z,43.40
2019-03-04T11:41:20.459Z,42.70
2019-03-04T11:43:53.004Z,42.30
2019-03-04T11:46:25.464Z,42.10
2019-03-04T11:48:57.850Z,42.10
2019-03-04T11:51:30.270Z,42.30
2019-03-04T11:54:02.659Z,42.00
2019-03-04T11:56:35.128Z,41.80
2019-03-04T11:59:07.532Z,41.80
2019-03-04T12:01:43.091Z,41.00
2019-03-04T12:04:15.476Z,40.80
2019-03-04T12:06:48.955Z,40.90
2019-03-04T12:09:21.402Z,40.60
2019-03-04T12:11:53.798Z,40.50
2019-03-04T12:14:26.252Z,40.30
2019-03-04T12:16:58.730Z,40.40
2019-03-04T12:19:31.224Z,40.40
2019-03-04T12:22:03.627Z,40.50
2019-03-04T12:24:36.067Z,40.50
2019-03-04T12:27:08.470Z,40.20
2019-03-04T12:29:40.842Z,40.30
2019-03-04T12:32:25.120Z,40.40
2019-03-04T12:34:57.500Z,40.20
2019-03-04T12:37:29.910Z,40.40
2019-03-04T12:40:02.354Z,40.40
2019-03-04T12:42:36.428Z,40.60
2019-03-04T12:45:14.841Z,40.90
2019-03-04T12:47:47.319Z,40.60
2019-03-04T12:50:22.882Z,40.40
2019-03-04T12:52:55.455Z,40.70
2019-03-04T12:55:27.829Z,40.40
2019-03-04T12:58:00.227Z,40.40
2019-03-04T13:00:32.714Z,40.50
2019-03-04T13:03:05.115Z,40.50
2019-03-04T13:05:37.559Z,40.90
2019-03-04T13:08:10.199Z,40.90
2019-03-04T13:10:42.594Z,41.50
2019-03-04T13:13:15.064Z,41.70
2019-03-04T13:15:48.962Z,41.90
2019-03-04T13:18:21.381Z,42.00
2019-03-04T13:20:53.767Z,41.80
2019-03-04T13:23:26.164Z,41.90
2019-03-04T13:25:58.547Z,42.20
2019-03-04T13:28:30.966Z,42.60
2019-03-04T13:31:05.699Z,42.60
2019-03-04T13:33:37.609Z,42.70
2019-03-04T13:36:12.076Z,42.70
2019-03-04T13:38:44.508Z,42.90
2019-03-04T13:41:16.870Z,42.30
2019-03-04T13:43:49.304Z,42.40
2019-03-04T13:46:21.681Z,42.10
2019-03-04T13:48:55.689Z,42.00
2019-03-04T13:51:28.265Z,41.50
2019-03-04T13:54:00.685Z,41.70
2019-03-04T13:56:33.050Z,41.60
2019-03-04T13:59:05.516Z,41.70
2019-03-04T14:01:37.890Z,41.90
2019-03-04T14:04:10.295Z,41.90
2019-03-04T14:06:42.668Z,42.00
2019-03-04T14:09:19.911Z,42.30
2019-03-04T14:11:52.293Z,42.60
2019-03-04T14:14:24.700Z,42.80
2019-03-04T14:16:57.205Z,43.00
2019-03-04T14:19:30.647Z,43.00
2019-03-04T14:22:04.166Z,42.90
2019-03-04T14:24:36.541Z,42.70
2019-03-04T14:27:08.957Z,43.00
2019-03-04T14:29:41.287Z,42.70
2019-03-04T14:32:13.713Z,42.60
2019-03-04T14:34:46.109Z,42.80
2019-03-04T14:37:18.472Z,42.60
2019-03-04T14:39:50.864Z,42.60
2019-03-04T14:42:23.232Z,42.80
2019-03-04T14:44:55.728Z,42.90
2019-03-04T14:47:28.124Z,42.60
2019-03-04T14:50:09.611Z,42.70
2019-03-04T14:52:35.725Z,43.60
2019-03-04T14:55:11.616Z,43.50
2019-03-04T14:57:44.147Z,42.90
2019-03-04T15:00:20.824Z,43.00
2019-03-04T15:02:53.200Z,43.30
2019-03-04T15:05:26.005Z,43.40
2019-03-04T15:07:58.380Z,43.50
2019-03-04T15:10:30.774Z,43.70
2019-03-04T15:13:03.330Z,43.60
2019-03-04T15:15:35.771Z,43.80
2019-03-04T15:18:08.096Z,43.80
2019-03-04T15:20:40.731Z,43.70
2019-03-04T15:23:13.195Z,43.60
2019-03-04T15:25:45.586Z,43.80
2019-03-04T15:28:20.317Z,43.90
2019-03-04T15:30:56.036Z,43.90
2019-03-04T15:33:28.504Z,43.80
2019-03-04T15:36:00.901Z,43.80
2019-03-04T15:38:33.301Z,43.80
2019-03-04T15:41:05.756Z,43.80
2019-03-04T15:43:38.207Z,43.80
2019-03-04T15:46:10.542Z,43.90
2019-03-04T15:48:42.923Z,43.90
2019-03-04T15:51:15.260Z,43.70
2019-03-04T15:53:47.641Z,43.90
2019-03-04T15:56:20.052Z,44.00
2019-03-04T15:58:52.441Z,44.00
2019-03-04T16:01:24.770Z,43.90
2019-03-04T16:03:57.169Z,43.70
2019-03-04T16:06:29.554Z,44.70
2019-03-04T16:09:02.034Z,44.20
2019-03-04T16:11:36.048Z,43.90
2019-03-04T16:14:08.495Z,43.70
2019-03-04T16:16:41.158Z,43.60
2019-03-04T16:19:13.580Z,43.50
2019-03-04T16:21:45.981Z,43.30
2019-03-04T16:24:18.358Z,43.30
2019-03-04T16:26:50.758Z,43.30
2019-03-04T16:29:24.110Z,43.30
2019-03-04T16:31:56.502Z,42.60
2019-03-04T16:34:28.875Z,43.30
2019-03-04T16:37:06.899Z,43.30
2019-03-04T16:39:39.283Z,42.60
2019-03-04T16:42:11.679Z,42.70
2019-03-04T16:44:44.066Z,42.50
2019-03-04T16:47:16.572Z,42.40
2019-03-04T16:49:49.023Z,42.20
2019-03-04T16:52:24.581Z,42.00
2019-03-04T16:54:57.450Z,41.80
2019-03-04T16:57:29.940Z,41.80
2019-03-04T17:00:02.777Z,41.80
2019-03-04T17:02:36.892Z,41.80
2019-03-04T17:05:11.804Z,41.80
2019-03-04T17:07:44.278Z,41.90
2019-03-04T17:10:17.165Z,42.00
2019-03-04T17:12:49.553Z,42.00
2019-03-04T17:15:22.053Z,42.00
2019-03-04T17:17:54.535Z,42.00
2019-03-04T17:20:27.015Z,41.90
2019-03-04T17:22:59.513Z,41.90
2019-03-04T17:25:31.882Z,41.80
2019-03-04T17:28:04.290Z,41.90
2019-03-04T17:30:37.264Z,41.80
2019-03-04T17:33:09.670Z,41.70
2019-03-04T17:35:42.133Z,41.60
2019-03-04T17:38:15.588Z,41.60
2019-03-04T17:40:47.961Z,41.40
2019-03-04T17:43:20.432Z,41.40
2019-03-04T17:45:52.876Z,41.30
2019-03-04T17:48:25.372Z,41.30
2019-03-04T17:50:58.862Z,41.20
2019-03-04T17:53:31.288Z,41.10
2019-03-04T17:56:03.667Z,41.00
2019-03-04T17:58:36.132Z,41.10
2019-03-04T18:01:08.503Z,41.20
2019-03-04T18:03:40.981Z,41.20
2019-03-04T18:06:13.366Z,41.10
2019-03-04T18:08:45.835Z,41.20
2019-03-04T18:11:18.192Z,41.10
2019-03-04T18:13:50.525Z,41.00
2019-03-04T18:16:22.900Z,41.00
2019-03-04T18:18:55.375Z,41.10
2019-03-04T18:21:28.037Z,41.00
2019-03-04T18:24:00.449Z,41.10
2019-03-04T18:26:48.921Z,40.90
2019-03-04T18:30:24.684Z,41.00
2019-03-04T18:33:52.778Z,40.90
2019-03-04T18:36:43.776Z,40.90
2019-03-04T18:40:08.091Z,40.90
2019-03-04T18:43:45.340Z,41.30
2019-03-04T18:47:17.729Z,41.20
2019-03-04T18:49:50.209Z,41.10
2019-03-04T18:52:22.708Z,41.20
2019-03-04T18:54:55.117Z,41.20
2019-03-04T18:57:27.591Z,41.00
2019-03-04T18:59:59.988Z,41.00
2019-03-04T19:02:32.382Z,41.00
2019-03-04T19:05:05.087Z,41.00
2019-03-04T19:07:38.133Z,41.00
2019-03-04T19:10:11.006Z,40.90
2019-03-04T19:12:43.392Z,40.80
2019-03-04T19:15:15.980Z,40.80
2019-03-04T19:17:48.437Z,40.90
2019-03-04T19:20:22.850Z,41.00
2019-03-04T19:22:55.226Z,41.70
2019-03-04T19:25:27.697Z,41.10
2019-03-04T19:28:00.088Z,41.00
2019-03-04T19:30:32.504Z,41.10
2019-03-04T19:33:04.943Z,41.20
2019-03-04T19:35:37.352Z,41.00
2019-03-04T19:38:09.792Z,41.00
2019-03-04T19:40:42.807Z,41.00
2019-03-04T19:43:15.173Z,41.10
2019-03-04T19:45:47.587Z,41.00
2019-03-04T19:48:20.144Z,41.00
2019-03-04T19:50:52.640Z,41.00
2019-03-04T19:53:25.060Z,41.10
2019-03-04T19:55:57.539Z,41.00
2019-03-04T19:58:29.919Z,41.20
2019-03-04T20:01:02.397Z,41.20
2019-03-04T20:03:34.845Z,41.20
2019-03-04T20:06:07.501Z,41.20
2019-03-04T20:08:39.958Z,41.30
2019-03-04T20:11:12.557Z,41.30
2019-03-04T20:13:45.014Z,41.30
2019-03-04T20:16:17.677Z,41.30
2019-03-04T20:18:50.105Z,41.30
2019-03-04T20:21:22.682Z,41.40
2019-03-04T20:23:55.210Z,41.50
2019-03-04T20:26:27.609Z,41.60
2019-03-04T20:28:59.993Z,41.80
2019-03-04T20:31:32.455Z,41.80
2019-03-04T20:34:06.029Z,41.80
2019-03-04T20:36:38.517Z,42.00
2019-03-04T20:39:14.976Z,42.00
2019-03-04T20:41:47.463Z,42.00
2019-03-04T20:44:19.915Z,42.00
2019-03-04T20:46:52.328Z,42.00
2019-03-04T20:49:24.716Z,42.10
2019-03-04T20:51:57.129Z,42.20
2019-03-04T20:54:29.511Z,42.20
2019-03-04T20:57:02.916Z,42.30
2019-03-04T20:59:35.360Z,42.40
2019-03-04T21:02:07.825Z,42.50
2019-03-04T21:04:40.395Z,42.60
2019-03-04T21:07:12.737Z,42.90
2019-03-04T21:09:45.118Z,42.50
2019-03-04T21:12:18.465Z,42.50
2019-03-04T21:14:51.150Z,42.50
2019-03-04T21:17:23.620Z,42.50
2019-03-04T21:19:56.077Z,43.20
2019-03-04T21:22:28.551Z,42.50
2019-03-04T21:25:01.002Z,42.50
2019-03-04T21:27:34.664Z,42.50
2019-03-04T21:31:05.699Z,42.60
2019-03-04T21:34:42.132Z,42.60
2019-03-04T21:37:24.911Z,42.30
2019-03-04T21:39:59.839Z,42.50
2019-03-04T21:43:04.490Z,42.60
2019-03-04T21:46:13.314Z,42.70
2019-03-04T21:48:54.793Z,42.90
2019-03-04T21:52:49.329Z,43.20
2019-03-04T21:56:07.518Z,43.40
2019-03-04T21:58:40.083Z,43.50
2019-03-04T22:01:37.835Z,43.60
2019-03-04T22:04:10.312Z,43.80
2019-03-04T22:06:43.055Z,43.70
2019-03-04T22:09:16.535Z,43.70
2019-03-04T22:11:48.991Z,43.90
2019-03-04T22:14:22.566Z,44.00
2019-03-04T22:16:55.033Z,44.00
2019-03-04T22:19:27.531Z,44.00
2019-03-04T22:21:59.882Z,44.00
2019-03-04T22:24:32.435Z,44.10
2019-03-04T22:27:04.940Z,44.10
2019-03-04T22:29:37.278Z,43.90
2019-03-04T22:32:09.656Z,44.00
2019-03-04T22:34:42.120Z,44.00
2019-03-04T22:37:14.502Z,44.00
2019-03-04T22:39:46.912Z,44.00
2019-03-04T22:42:19.276Z,43.90
2019-03-04T22:44:51.668Z,43.80
2019-03-04T22:47:24.066Z,43.80
2019-03-04T22:49:56.531Z,43.90
2019-03-04T22:52:28.941Z,43.80
2019-03-04T22:55:01.430Z,43.90
2019-03-04T22:57:33.838Z,43.90
2019-03-04T23:01:16.657Z,44.00
2019-03-04T23:03:50.733Z,43.90
2019-03-04T23:06:26.779Z,43.80
2019-03-04T23:08:59.232Z,43.80
2019-03-04T23:11:31.866Z,44.00
2019-03-04T23:14:11.564Z,44.00
2019-03-04T23:16:43.963Z,44.10
2019-03-04T23:19:16.346Z,44.30
2019-03-04T23:21:48.860Z,44.30
2019-03-04T23:24:21.676Z,44.30
2019-03-04T23:26:54.087Z,44.30
2019-03-04T23:29:26.579Z,44.30
2019-03-04T23:31:58.975Z,44.40
2019-03-04T23:34:31.353Z,44.30
2019-03-04T23:37:03.752Z,44.60
2019-03-04T23:39:36.162Z,44.60
2019-03-04T23:42:08.582Z,44.40
2019-03-04T23:44:41.015Z,44.40
2019-03-04T23:47:13.406Z,44.40
2019-03-04T23:49:46.861Z,44.30
2019-03-04T23:52:19.220Z,44.40
2019-03-04T23:54:51.605Z,44.40
2019-03-04T23:57:24.006Z,44.20
2019-03-04T23:59:56.387Z,44.10
